This is the latest recevied weather packets stored in our database for station/object K4CRS-13. If no packets are shown the sender has not sent any weather packets the latest 1 day(s).
| Time | Temp. | Humidity | Pressure | Rain* | Wind** | Luminosity | Snow |
|---|---|---|---|---|---|---|---|
| 1778002401 | 22.78° C | 61% | 1048.8 hPa | 0 mm | 0.89 m/s, 185° | 315 W/m² | - |
| 1778002098 | 23.33° C | 60% | 1048.8 hPa | 0 mm | 1.34 m/s, 178° | 323 W/m² | - |
| 1778001796 | 23.89° C | 56% | 1048.8 hPa | 0 mm | 0.89 m/s, 195° | 326 W/m² | - |
| 1778001495 | 24.44° C | 56% | 1048.9 hPa | 0 mm | 1.79 m/s, 189° | 512 W/m² | - |
| 1778001193 | 23.89° C | 60% | 1048.7 hPa | 0 mm | 0.45 m/s, 161° | 961 W/m² | - |
| 1778000889 | 23.33° C | 58% | 1048.7 hPa | 0 mm | 1.34 m/s, 166° | 830 W/m² | - |
| 1778000586 | 22.78° C | 62% | 1048.7 hPa | 0 mm | 0.89 m/s, 177° | 700 W/m² | - |
| 1778000281 | 22.22° C | 62% | 1048.9 hPa | 0 mm | 0.89 m/s, 187° | 591 W/m² | - |
| 1777999977 | 21.67° C | 62% | 1048.7 hPa | 0 mm | 0.89 m/s, 172° | 368 W/m² | - |
| 1777999673 | 21.67° C | 61% | 1048.8 hPa | 0 mm | 1.34 m/s, 186° | 307 W/m² | - |
| 1777999370 | 21.67° C | 60% | 1048.8 hPa | 0 mm | 0.45 m/s, 194° | 290 W/m² | - |
| 1777999068 | 21.67° C | 57% | 1048.9 hPa | 0 mm | 1.79 m/s, 183° | 315 W/m² | - |
| 1777998767 | 22.22° C | 57% | 1048.9 hPa | 0 mm | 1.34 m/s, 178° | 345 W/m² | - |
| 1777998464 | 22.78° C | 58% | 1049.1 hPa | 0 mm | 1.34 m/s, 191° | 372 W/m² | - |
| 1777998161 | 23.33° C | 59% | 1048.9 hPa | 0 mm | 0.45 m/s, 188° | 443 W/m² | - |
| 1777997857 | 23.33° C | 59% | 1049.1 hPa | 0 mm | 0.45 m/s, 177° | 399 W/m² | - |
| 1777997555 | 23.33° C | 61% | 1049 hPa | 0 mm | 0.45 m/s, 176° | 428 W/m² | - |
| 1777997252 | 22.78° C | 60% | 1048.9 hPa | 0 mm | 0.45 m/s, 168° | 578 W/m² | - |
| 1777996950 | 23.33° C | 58% | 1048.6 hPa | 0 mm | 1.34 m/s, 177° | 574 W/m² | - |
| 1777996646 | 23.33° C | 59% | 1048.8 hPa | 0 mm | 1.34 m/s, 183° | 704 W/m² | - |
| 1777996343 | 22.78° C | 61% | 1048.9 hPa | 0 mm | 0.89 m/s, 187° | 748 W/m² | - |
| 1777996039 | 23.33° C | 61% | 1049 hPa | 0 mm | 1.79 m/s, 188° | 466 W/m² | - |
| 1777995735 | 22.78° C | 61% | 1048.7 hPa | 0 mm | 1.34 m/s, 181° | 730 W/m² | - |
| 1777995432 | 22.78° C | 61% | 1048.8 hPa | 0 mm | 0 m/s | 614 W/m² | - |
| 1777995129 | 22.78° C | 64% | 1048.4 hPa | 0 mm | 0.89 m/s, 203° | 727 W/m² | - |
* Rain latest hour (hover to see other rain measurements)
** Current wind speed in m/s (hover to see current wind gust speed)